Time,TemperatureF,DewpointF,PressureIn,WindDirection,WindDirectionDegrees,WindSpeedMPH,WindSpeedGustMPH,Humidity,HourlyPrecipIn,Conditions,Clouds,dailyrainin,SoftwareType,DateUTC
2013-03-31 00:04:00,59.9,55.6,29.58,SW,225,5.8,5.8,86,0.00,,,0.00,,2013-03-30 23:04:00,
2013-03-31 00:09:00,59.9,55.9,29.58,SW,225,8.5,10.7,87,0.00,,,0.00,,2013-03-30 23:09:00,
2013-03-31 00:14:00,59.9,55.9,29.58,SW,225,8.0,12.9,87,0.00,,,0.00,,2013-03-30 23:14:00,
2013-03-31 00:19:00,59.9,55.9,29.55,SW,225,7.1,9.8,87,0.00,,,0.00,,2013-03-30 23:19:00,
2013-03-31 00:24:00,59.9,55.9,29.55,SW,225,6.2,8.5,87,0.00,,,0.00,,2013-03-30 23:24:00,
2013-03-31 00:29:00,59.9,55.9,29.55,South,180,4.4,5.3,87,0.00,,,0.00,,2013-03-30 23:29:00,
2013-03-31 00:34:00,59.9,55.9,29.55,South,180,2.2,5.3,87,0.00,,,0.00,,2013-03-30 23:34:00,
2013-03-31 00:39:00,59.7,55.8,29.55,South,180,2.6,5.3,87,0.00,,,0.00,,2013-03-30 23:39:00,
2013-03-31 00:44:00,59.7,55.8,29.55,South,180,4.0,5.3,87,0.00,,,0.00,,2013-03-30 23:44:00,
2013-03-31 00:49:00,59.7,55.8,29.55,SW,225,3.5,4.4,87,0.00,,,0.00,,2013-03-30 23:49:00,
2013-03-31 00:54:00,59.7,55.8,29.55,SW,225,3.1,6.2,87,0.00,,,0.00,,2013-03-30 23:54:00,
2013-03-31 00:59:00,59.7,55.8,29.55,SW,225,3.5,5.3,87,0.00,,,0.00,,2013-03-30 23:59:00,
2013-03-31 01:04:00,59.7,55.8,29.55,SW,225,3.5,4.4,87,0.00,,,0.00,,2013-03-31 00:04:00,
2013-03-31 01:09:00,59.7,55.8,29.55,SW,225,4.0,4.0,87,0.07,,,0.07,,2013-03-31 00:09:00,
2013-03-31 01:14:00,59.5,55.6,29.55,WSW,247,2.2,2.2,87,0.09,,,0.09,,2013-03-31 00:14:00,
2013-03-31 01:19:00,59.5,55.6,29.55,SW,225,1.3,1.3,87,0.11,,,0.11,,2013-03-31 00:19:00,
2013-03-31 01:24:00,59.5,55.6,29.55,SW,225,0.0,1.3,87,0.11,,,0.11,,2013-03-31 00:24:00,
2013-03-31 01:29:00,59.5,55.6,29.58,SE,135,1.3,3.5,87,0.14,,,0.14,,2013-03-31 00:29:00,
2013-03-31 01:34:00,59.5,55.6,29.58,SW,225,1.7,0.0,87,0.14,,,0.14,,2013-03-31 00:34:00,
2013-03-31 01:39:00,59.4,55.8,29.58,South,180,4.4,4.4,88,0.14,,,0.14,,2013-03-31 00:39:00,
2013-03-31 01:44:00,59.4,55.8,29.58,SE,135,1.7,0.0,88,0.14,,,0.14,,2013-03-31 00:44:00,
2013-03-31 01:49:00,59.2,55.6,29.55,SW,225,2.2,2.6,88,0.14,,,0.14,,2013-03-31 00:49:00,
2013-03-31 01:54:00,59.2,55.6,29.55,SW,225,1.7,2.6,88,0.16,,,0.16,,2013-03-31 00:54:00,
2013-03-31 01:59:00,59.2,55.6,29.58,SW,225,3.5,4.0,88,0.16,,,0.16,,2013-03-31 00:59:00,
2013-03-31 03:04:00,59.0,55.4,29.58,SW,225,3.5,4.0,88,0.00,,,0.16,,2013-03-31 01:04:00,
2013-03-31 03:09:00,58.8,55.2,29.55,SW,225,3.1,3.1,88,0.00,,,0.16,,2013-03-31 01:09:00,
2013-03-31 03:14:00,58.8,55.2,29.55,SW,225,1.3,1.3,88,0.00,,,0.16,,2013-03-31 01:14:00,
2013-03-31 03:19:00,58.6,55.0,29.55,SW,225,0.8,0.0,88,0.00,,,0.16,,2013-03-31 01:19:00,
2013-03-31 03:24:00,58.6,55.0,29.55,SW,225,0.0,0.0,88,0.00,,,0.16,,2013-03-31 01:24:00,
2013-03-31 03:29:00,58.6,55.0,29.55,SW,225,0.0,0.0,88,0.00,,,0.16,,2013-03-31 01:29:00,
2013-03-31 03:34:00,58.6,55.0,29.55,SW,225,0.0,0.0,88,0.00,,,0.16,,2013-03-31 01:34:00,
2013-03-31 03:39:00,58.6,55.0,29.55,South,180,0.0,0.0,88,0.00,,,0.16,,2013-03-31 01:39:00,
2013-03-31 03:49:00,58.6,55.0,29.53,South,180,0.0,0.0,88,0.00,,,0.16,,2013-03-31 01:49:00,
2013-03-31 03:54:00,58.6,55.0,29.53,South,180,1.7,0.0,88,0.00,,,0.16,,2013-03-31 01:54:00,
2013-03-31 03:59:00,58.5,54.9,29.55,SW,225,0.8,0.0,88,0.00,,,0.16,,2013-03-31 01:59:00,
2013-03-31 04:09:00,58.6,55.0,29.55,South,180,1.7,0.0,88,0.00,,,0.16,,2013-03-31 02:09:00,
2013-03-31 04:14:00,58.6,55.0,29.55,South,180,0.8,1.7,88,0.00,,,0.16,,2013-03-31 02:14:00,
2013-03-31 04:24:00,58.5,54.9,29.55,SE,135,2.2,4.0,88,0.00,,,0.16,,2013-03-31 02:24:00,
2013-03-31 04:29:00,58.3,54.7,29.55,SSE,157,4.0,4.0,88,0.00,,,0.16,,2013-03-31 02:29:00,
2013-03-31 04:39:00,58.3,54.7,29.58,SE,135,2.6,3.1,88,0.00,,,0.16,,2013-03-31 02:39:00,
2013-03-31 04:44:00,58.3,54.7,29.58,SE,135,2.6,4.0,88,0.00,,,0.16,,2013-03-31 02:44:00,
2013-03-31 04:49:00,58.1,54.5,29.55,SE,135,2.6,4.4,88,0.00,,,0.16,,2013-03-31 02:49:00,
2013-03-31 04:54:00,57.9,54.3,29.55,SE,135,1.7,4.4,88,0.00,,,0.16,,2013-03-31 02:54:00,
2013-03-31 04:59:00,57.7,54.1,29.55,SE,135,1.3,2.6,88,0.00,,,0.16,,2013-03-31 02:59:00,
2013-03-31 05:04:00,57.7,54.1,29.55,East,90,1.3,0.0,88,0.00,,,0.16,,2013-03-31 03:04:00,
2013-03-31 05:09:00,57.7,54.1,29.55,East,90,0.8,2.2,88,0.00,,,0.16,,2013-03-31 03:09:00,
2013-03-31 05:14:00,57.6,54.0,29.55,East,90,1.3,2.6,88,0.00,,,0.16,,2013-03-31 03:14:00,
2013-03-31 05:19:00,57.6,54.0,29.55,East,90,1.3,0.0,88,0.00,,,0.16,,2013-03-31 03:19:00,
2013-03-31 05:24:00,57.6,54.0,29.55,East,90,0.8,0.0,88,0.00,,,0.16,,2013-03-31 03:24:00,
2013-03-31 05:29:00,57.6,54.3,29.53,East,90,0.8,1.7,89,0.00,,,0.16,,2013-03-31 03:29:00,
2013-03-31 05:34:00,57.4,53.8,29.53,East,90,3.1,3.5,88,0.00,,,0.16,,2013-03-31 03:34:00,
2013-03-31 05:39:00,57.2,53.6,29.55,East,90,1.7,2.6,88,0.00,,,0.16,,2013-03-31 03:39:00,
2013-03-31 05:44:00,57.2,53.6,29.55,East,90,2.2,3.1,88,0.00,,,0.16,,2013-03-31 03:44:00,
2013-03-31 05:49:00,57.2,53.6,29.55,East,90,0.4,0.8,88,0.00,,,0.16,,2013-03-31 03:49:00,
2013-03-31 05:54:00,57.2,54.0,29.55,NE,45,1.7,0.0,89,0.00,,,0.16,,2013-03-31 03:54:00,
2013-03-31 05:59:00,57.2,54.0,29.53,East,90,2.2,2.6,89,0.00,,,0.16,,2013-03-31 03:59:00,
2013-03-31 06:04:00,57.2,53.6,29.53,East,90,2.6,2.6,88,0.00,,,0.16,,2013-03-31 04:04:00,
2013-03-31 06:09:00,57.2,54.0,29.55,ENE,67,2.2,2.2,89,0.00,,,0.16,,2013-03-31 04:09:00,
2013-03-31 06:14:00,57.2,53.6,29.55,East,90,2.6,2.6,88,0.00,,,0.16,,2013-03-31 04:14:00,
2013-03-31 06:19:00,57.4,54.1,29.55,East,90,0.4,0.8,89,0.00,,,0.16,,2013-03-31 04:19:00,
2013-03-31 06:24:00,57.4,54.1,29.55,SE,135,0.8,2.2,89,0.00,,,0.16,,2013-03-31 04:24:00,
2013-03-31 06:29:00,57.4,54.1,29.55,East,90,2.6,2.6,89,0.00,,,0.16,,2013-03-31 04:29:00,
2013-03-31 06:34:00,57.4,54.1,29.55,East,90,1.7,2.6,89,0.00,,,0.16,,2013-03-31 04:34:00,
2013-03-31 06:39:00,57.4,53.8,29.55,SE,135,2.2,3.5,88,0.00,,,0.16,,2013-03-31 04:39:00,
2013-03-31 06:44:00,57.4,54.1,29.55,SE,135,2.2,3.1,89,-99.99,,,0.16,,2013-03-31 04:44:00,
2013-03-31 06:49:00,57.4,54.1,29.53,SE,135,2.2,3.1,89,-99.99,,,0.16,,2013-03-31 04:49:00,
2013-03-31 06:54:00,57.6,54.3,29.53,SE,135,2.6,3.1,89,-99.99,,,0.16,,2013-03-31 04:54:00,
2013-03-31 06:59:00,57.6,54.3,29.53,SE,135,2.2,3.1,89,-99.99,,,0.16,,2013-03-31 04:59:00,
2013-03-31 07:04:00,57.6,54.3,29.53,SE,135,2.2,2.6,89,-99.99,,,0.16,,2013-03-31 05:04:00,
2013-03-31 07:09:00,57.7,54.5,29.55,SE,135,2.2,3.1,89,-99.99,,,0.16,,2013-03-31 05:09:00,
2013-03-31 07:14:00,57.7,54.5,29.55,SE,135,2.2,2.6,89,-99.99,,,0.16,,2013-03-31 05:14:00,
2013-03-31 07:19:00,57.7,54.5,29.55,SE,135,2.6,2.6,89,-99.99,,,0.16,,2013-03-31 05:19:00,
2013-03-31 07:24:00,57.7,54.5,29.55,SE,135,2.6,3.1,89,-99.99,,,0.16,,2013-03-31 05:24:00,
2013-03-31 07:29:00,57.9,54.7,29.55,SE,135,2.2,2.6,89,-99.99,,,0.16,,2013-03-31 05:29:00,
2013-03-31 07:34:00,57.9,54.7,29.55,SE,135,3.1,3.5,89,-99.99,,,0.16,,2013-03-31 05:34:00,
2013-03-31 07:39:00,57.9,54.7,29.55,SE,135,1.7,2.6,89,-99.99,,,0.16,,2013-03-31 05:39:00,
2013-03-31 07:44:00,57.9,54.7,29.55,SE,135,2.6,2.6,89,-99.99,,,0.16,,2013-03-31 05:44:00,
2013-03-31 07:49:00,57.9,54.7,29.55,SE,135,2.2,2.6,89,-99.99,,,0.16,,2013-03-31 05:49:00,
2013-03-31 07:54:00,57.9,54.7,29.55,SE,135,0.4,1.7,89,-99.99,,,0.16,,2013-03-31 05:54:00,
2013-03-31 07:59:00,58.1,54.9,29.55,SE,135,0.4,0.0,89,-99.99,,,0.16,,2013-03-31 05:59:00,
2013-03-31 08:04:00,58.3,55.0,29.55,SE,135,0.0,0.0,89,-99.99,,,0.16,,2013-03-31 06:04:00,
2013-03-31 08:09:00,58.3,55.0,29.55,SE,135,0.0,0.0,89,-99.99,,,0.16,,2013-03-31 06:09:00,
2013-03-31 08:14:00,58.3,54.7,29.55,SE,135,0.0,0.0,88,-99.99,,,0.16,,2013-03-31 06:14:00,
2013-03-31 08:19:00,58.5,55.2,29.58,SE,135,0.0,0.0,89,-99.99,,,0.16,,2013-03-31 06:19:00,
2013-03-31 08:24:00,58.6,55.4,29.58,South,180,0.4,2.2,89,-99.99,,,0.16,,2013-03-31 06:24:00,
2013-03-31 08:29:00,59.0,55.8,29.58,South,180,1.3,1.7,89,-99.99,,,0.16,,2013-03-31 06:29:00,
2013-03-31 08:34:00,59.5,56.1,29.58,SW,225,0.4,1.7,89,-99.99,,,0.16,,2013-03-31 06:34:00,
2013-03-31 08:39:00,59.7,56.3,29.58,South,180,1.3,2.2,89,-99.99,,,0.16,,2013-03-31 06:39:00,
2013-03-31 08:49:00,60.3,56.8,29.58,South,180,0.4,4.9,89,-99.99,,,0.16,,2013-03-31 06:49:00,
2013-03-31 08:54:00,60.6,57.2,29.58,NE,45,1.3,1.3,89,-99.99,,,0.16,,2013-03-31 06:54:00,
2013-03-31 08:59:00,61.2,57.7,29.58,South,180,0.4,1.7,89,-99.99,,,0.16,,2013-03-31 06:59:00,
2013-03-31 09:04:00,61.2,57.6,29.58,SW,225,3.1,4.0,88,-99.99,,,0.16,,2013-03-31 07:04:00,
2013-03-31 09:09:00,61.5,57.6,29.58,SW,225,2.6,3.5,87,-99.99,,,0.16,,2013-03-31 07:09:00,
2013-03-31 09:14:00,61.9,57.9,29.58,SW,225,3.5,3.5,87,-99.99,,,0.16,,2013-03-31 07:14:00,
2013-03-31 09:19:00,61.9,57.6,29.58,SSW,202,4.4,6.2,86,-99.99,,,0.16,,2013-03-31 07:19:00,
2013-03-31 09:24:00,61.9,57.6,29.58,SW,225,5.3,6.2,86,-99.99,,,0.16,,2013-03-31 07:24:00,
2013-03-31 09:29:00,61.7,57.0,29.58,SW,225,4.9,7.6,85,-99.99,,,0.16,,2013-03-31 07:29:00,
2013-03-31 09:34:00,61.9,57.2,29.58,SW,225,4.9,4.9,85,-99.99,,,0.16,,2013-03-31 07:34:00,
2013-03-31 09:39:00,62.1,57.4,29.58,SW,225,4.9,5.3,85,-99.99,,,0.16,,2013-03-31 07:39:00,
2013-03-31 09:44:00,62.4,57.4,29.58,SW,225,5.8,10.7,84,-99.99,,,0.16,,2013-03-31 07:44:00,
2013-03-31 09:49:00,62.8,57.7,29.58,SW,225,6.2,7.6,84,-99.99,,,0.16,,2013-03-31 07:49:00,
2013-03-31 09:54:00,63.0,57.6,29.58,SW,225,8.0,10.2,83,-99.99,,,0.16,,2013-03-31 07:54:00,
2013-03-31 09:59:00,63.0,57.6,29.58,SW,225,9.8,11.6,83,-99.99,,,0.16,,2013-03-31 07:59:00,
2013-03-31 10:04:00,63.0,57.2,29.58,SW,225,5.8,8.0,82,-99.99,,,0.16,,2013-03-31 08:04:00,
2013-03-31 10:09:00,63.0,57.2,29.58,SW,225,9.3,12.0,82,-99.99,,,0.16,,2013-03-31 08:09:00,
2013-03-31 10:14:00,63.0,57.2,29.58,SW,225,8.0,10.2,82,-99.99,,,0.16,,2013-03-31 08:14:00,
2013-03-31 19:38:00,60.4,52.3,29.67,South,180,7.1,7.6,75,0.00,,,0.16,,2013-03-31 17:38:00,
2013-03-31 19:43:00,60.4,52.3,29.67,SSW,202,6.7,6.7,75,0.00,,,0.16,,2013-03-31 17:43:00,
2013-03-31 19:48:00,60.3,52.2,29.67,SW,225,10.7,14.7,75,0.00,,,0.16,,2013-03-31 17:48:00,
2013-03-31 19:53:00,60.3,52.2,29.67,SW,225,11.1,15.6,75,0.00,,,0.16,,2013-03-31 17:53:00,
2013-03-31 19:58:00,60.3,52.5,29.67,SW,225,6.7,6.7,76,0.00,,,0.16,,2013-03-31 17:58:00,
2013-03-31 20:03:00,60.1,52.3,29.67,SW,225,8.0,8.0,76,0.00,,,0.16,,2013-03-31 18:03:00,
2013-03-31 20:08:00,60.1,52.7,29.67,SW,225,9.3,11.1,77,0.00,,,0.16,,2013-03-31 18:08:00,
2013-03-31 20:18:00,59.9,52.5,29.70,SW,225,7.1,9.3,77,0.00,,,0.16,,2013-03-31 18:18:00,
2013-03-31 20:23:00,59.9,52.5,29.70,SW,225,8.5,9.3,77,0.00,,,0.16,,2013-03-31 18:23:00,
2013-03-31 20:28:00,59.7,52.3,29.70,SW,225,5.8,9.3,77,0.00,,,0.16,,2013-03-31 18:28:00,
2013-03-31 20:33:00,59.7,52.3,29.70,SW,225,10.2,12.9,77,0.00,,,0.16,,2013-03-31 18:33:00,
2013-03-31 20:43:00,59.7,52.3,29.70,SSW,202,6.2,6.2,77,0.00,,,0.16,,2013-03-31 18:43:00,
2013-03-31 20:48:00,59.7,52.7,29.70,SW,225,9.8,9.8,78,0.00,,,0.16,,2013-03-31 18:48:00,
2013-03-31 20:53:00,59.7,52.3,29.73,SW,225,8.5,8.5,77,0.00,,,0.16,,2013-03-31 18:53:00,
2013-03-31 20:58:00,59.7,52.3,29.73,SW,225,8.9,13.4,77,0.00,,,0.16,,2013-03-31 18:58:00,
2013-03-31 21:03:00,59.7,52.3,29.73,South,180,8.0,10.7,77,0.00,,,0.16,,2013-03-31 19:03:00,
2013-03-31 21:08:00,59.7,52.3,29.73,SW,225,7.6,7.6,77,0.00,,,0.16,,2013-03-31 19:08:00,
2013-03-31 21:13:00,59.7,52.3,29.73,SSW,202,9.3,12.5,77,0.00,,,0.16,,2013-03-31 19:13:00,
2013-03-31 21:18:00,59.7,52.3,29.73,SW,225,10.2,13.4,77,0.00,,,0.16,,2013-03-31 19:18:00,
2013-03-31 21:23:00,59.7,52.3,29.70,SW,225,8.5,15.6,77,0.00,,,0.16,,2013-03-31 19:23:00,
2013-03-31 21:28:00,59.7,52.0,29.70,SW,225,10.2,15.6,76,0.00,,,0.16,,2013-03-31 19:28:00,
2013-03-31 21:38:00,59.5,51.8,29.73,SW,225,9.3,15.6,76,0.00,,,0.16,,2013-03-31 19:38:00,
2013-03-31 21:43:00,59.5,51.8,29.73,SW,225,8.9,10.2,76,0.00,,,0.16,,2013-03-31 19:43:00,
2013-03-31 21:48:00,59.5,51.8,29.73,SW,225,7.6,8.5,76,0.00,,,0.16,,2013-03-31 19:48:00,
2013-03-31 21:58:00,59.5,51.4,29.73,SW,225,9.8,12.9,75,0.00,,,0.16,,2013-03-31 19:58:00,
2013-03-31 22:03:00,59.5,51.4,29.73,SW,225,8.0,13.4,75,0.00,,,0.16,,2013-03-31 20:03:00,
2013-03-31 22:08:00,59.5,51.8,29.73,SW,225,9.3,13.4,76,0.00,,,0.16,,2013-03-31 20:08:00,
2013-03-31 22:18:00,59.7,51.6,29.76,SW,225,10.2,10.2,75,0.00,,,0.16,,2013-03-31 20:18:00,
2013-03-31 22:23:00,59.5,51.4,29.76,SW,225,9.3,11.6,75,0.00,,,0.16,,2013-03-31 20:23:00,
2013-03-31 22:28:00,59.7,51.3,29.73,SW,225,12.9,12.9,74,0.00,,,0.16,,2013-03-31 20:28:00,
2013-03-31 22:33:00,59.7,51.3,29.73,SW,225,11.1,15.2,74,0.00,,,0.16,,2013-03-31 20:33:00,
2013-03-31 22:43:00,59.7,51.3,29.79,SW,225,6.2,15.2,74,0.00,,,0.16,,2013-03-31 20:43:00,
2013-03-31 22:53:00,59.5,51.1,29.73,SW,225,6.7,11.1,74,0.00,,,0.16,,2013-03-31 20:53:00,
2013-03-31 22:58:00,59.5,51.1,29.76,SW,225,8.0,9.3,74,0.00,,,0.16,,2013-03-31 20:58:00,
2013-03-31 23:03:00,59.5,50.7,29.76,SW,225,11.1,11.1,73,0.00,,,0.16,,2013-03-31 21:03:00,
2013-03-31 23:08:00,59.5,51.1,29.76,SW,225,10.2,12.5,74,0.00,,,0.16,,2013-03-31 21:08:00,
2013-03-31 23:13:00,59.5,51.1,29.76,SW,225,9.3,12.9,74,0.00,,,0.16,,2013-03-31 21:13:00,
2013-03-31 23:23:00,59.4,50.9,29.76,SW,225,8.5,9.3,74,0.00,,,0.16,,2013-03-31 21:23:00,
2013-03-31 23:28:00,59.4,51.3,29.73,SW,225,8.5,9.3,75,0.00,,,0.16,,2013-03-31 21:28:00,
2013-03-31 23:33:00,59.4,51.3,29.73,SW,225,8.5,12.0,75,0.00,,,0.16,,2013-03-31 21:33:00,
2013-03-31 23:38:00,59.4,50.9,29.73,SW,225,9.3,11.1,74,0.00,,,0.16,,2013-03-31 21:38:00,
2013-03-31 23:43:00,59.4,50.9,29.73,SW,225,7.1,12.0,74,0.00,,,0.16,,2013-03-31 21:43:00,
2013-03-31 23:53:00,59.4,50.9,29.73,SW,225,9.8,12.5,74,0.00,,,0.16,,2013-03-31 21:53:00,
2013-03-31 23:58:00,59.4,50.9,29.76,SW,225,10.2,12.5,74,0.00,,,0.16,,2013-03-31 21:58:00,